Time;durP1;ratioP1;P1;durP2;ratioP2;P2;SDS_P1;SDS_P2;PMS_P1;PMS_P2;Temp;Humidity;BMP_temperature;BMP_pressure;BME280_temperature;BME280_humidity;BME280_pressure;Samples;Min_cycle;Max_cycle;Signal;HPM_P1;HPM_P2
2024/03/22 00:01:52;;;;;;;10.68;5.82;;;11.30;89.60;;;;;;4994452;28;20026;-93
2024/03/22 00:04:18;;;;;;;11.43;7.32;;;11.30;89.90;;;;;;4994820;28;20103;-93
2024/03/22 00:06:48;;;;;;;10.00;5.65;;;11.30;89.80;;;;;;4994256;28;20057;-94
2024/03/22 00:09:14;;;;;;;9.77;5.13;;;11.30;90.00;;;;;;4994877;28;20105;-93
2024/03/22 00:11:41;;;;;;;8.23;5.28;;;11.10;90.70;;;;;;4993498;28;20077;-93
2024/03/22 00:14:07;;;;;;;12.88;5.65;;;11.10;90.60;;;;;;4996477;28;20034;-92
2024/03/22 00:16:33;;;;;;;8.52;5.25;;;10.90;91.40;;;;;;4998505;28;20109;-93
2024/03/22 00:18:58;;;;;;;12.38;6.13;;;10.90;91.40;;;;;;4993407;28;20027;-93
2024/03/22 00:21:24;;;;;;;9.10;5.22;;;10.80;91.90;;;;;;4996895;28;20030;-92
2024/03/22 00:23:50;;;;;;;10.13;6.03;;;10.70;92.50;;;;;;4998735;28;20023;-93
2024/03/22 00:26:16;;;;;;;8.70;5.97;;;10.80;92.10;;;;;;4999377;28;20022;-92
2024/03/22 00:28:42;;;;;;;12.93;7.13;;;10.70;93.70;;;;;;4998446;28;20061;-93
2024/03/22 00:31:08;;;;;;;10.40;7.03;;;10.70;93.20;;;;;;4988867;28;20030;-93
2024/03/22 00:33:34;;;;;;;9.45;6.45;;;10.70;92.80;;;;;;4997716;28;20053;-93
2024/03/22 00:35:59;;;;;;;8.98;5.45;;;10.60;93.10;;;;;;4998027;28;20563;-93
2024/03/22 00:38:25;;;;;;;9.25;6.72;;;10.60;93.00;;;;;;4998168;28;20496;-93
2024/03/22 00:40:51;;;;;;;9.50;6.70;;;10.50;93.60;;;;;;4997074;28;20045;-93
2024/03/22 00:43:16;;;;;;;11.15;6.15;;;10.40;94.10;;;;;;4997903;28;20033;-93
2024/03/22 00:45:42;;;;;;;9.50;5.85;;;10.50;94.10;;;;;;4998363;28;20026;-93
2024/03/22 00:48:08;;;;;;;10.57;6.30;;;10.50;94.00;;;;;;4990117;28;20027;-93
2024/03/22 00:50:34;;;;;;;11.98;6.07;;;10.40;94.40;;;;;;4995461;28;20157;-94
2024/03/22 00:53:02;;;;;;;12.48;6.65;;;10.40;94.50;;;;;;4982165;28;20082;-93
2024/03/22 00:55:28;;;;;;;9.60;6.28;;;10.40;94.50;;;;;;4998418;28;20117;-92
2024/03/22 00:57:53;;;;;;;9.68;5.93;;;10.40;94.60;;;;;;5015038;28;20022;-93
2024/03/22 01:00:19;;;;;;;10.00;5.82;;;10.40;95.00;;;;;;5018495;28;20018;-94
2024/03/22 01:02:45;;;;;;;8.80;5.47;;;10.40;94.90;;;;;;5011059;28;20049;-92
2024/03/22 01:05:10;;;;;;;12.13;6.20;;;10.40;94.70;;;;;;4998069;28;20109;-92
2024/03/22 01:07:37;;;;;;;12.32;7.05;;;10.30;95.10;;;;;;4997855;28;20034;-92
2024/03/22 01:10:06;;;;;;;9.18;5.78;;;10.30;94.80;;;;;;4996174;28;21113;-93
2024/03/22 01:12:32;;;;;;;11.35;5.82;;;10.30;94.70;;;;;;4997506;28;20073;-92
2024/03/22 01:14:58;;;;;;;7.40;6.68;;;10.20;94.90;;;;;;4995833;28;20026;-92
2024/03/22 01:17:24;;;;;;;9.23;6.28;;;10.00;95.20;;;;;;4995793;28;20058;-93
2024/03/22 01:19:50;;;;;;;11.88;6.70;;;10.00;95.60;;;;;;4996153;28;20042;-92
2024/03/22 01:22:17;;;;;;;8.93;6.30;;;9.90;95.60;;;;;;4991630;28;20034;-91
2024/03/22 01:24:43;;;;;;;8.98;5.03;;;10.00;95.20;;;;;;4995688;28;20102;-94
2024/03/22 01:27:09;;;;;;;8.90;5.70;;;9.90;95.30;;;;;;4996462;28;20524;-93
2024/03/22 01:29:35;;;;;;;12.40;5.43;;;9.90;95.40;;;;;;4995609;28;20029;-93
2024/03/22 01:32:01;;;;;;;8.38;5.65;;;9.90;95.10;;;;;;4997314;28;20038;-94
2024/03/22 01:34:26;;;;;;;12.00;6.45;;;9.90;95.30;;;;;;4996305;28;20081;-93
2024/03/22 01:36:52;;;;;;;8.98;5.20;;;9.70;95.40;;;;;;4997485;28;20110;-92
2024/03/22 01:39:21;;;;;;;9.95;6.15;;;9.70;95.90;;;;;;4995012;28;20034;-92
2024/03/22 01:41:51;;;;;;;7.25;5.30;;;9.60;96.60;;;;;;4995741;28;20034;-94
2024/03/22 01:44:17;;;;;;;11.70;5.50;;;9.70;96.60;;;;;;4996644;28;20050;-93
2024/03/22 01:46:44;;;;;;;6.78;5.93;;;9.70;95.80;;;;;;4996537;28;20037;-93
2024/03/22 01:49:13;;;;;;;11.88;6.13;;;9.70;95.90;;;;;;4997512;28;20654;-93
2024/03/22 01:51:41;;;;;;;8.77;5.13;;;9.70;95.60;;;;;;4996946;28;20041;-93
2024/03/22 01:54:09;;;;;;;9.40;5.25;;;9.60;95.80;;;;;;4996211;28;20049;-92
2024/03/22 01:56:38;;;;;;;;;;;9.60;96.40;;;;;;4997884;28;20034;-92
2024/03/22 01:59:05;;;;;;;6.35;5.05;;;9.50;96.60;;;;;;4996281;28;19910;-92
2024/03/22 02:01:32;;;;;;;9.30;5.85;;;9.50;96.50;;;;;;4996814;28;20022;-92
2024/03/22 02:03:57;;;;;;;7.90;5.68;;;9.50;96.90;;;;;;4997283;28;20081;-92
2024/03/22 02:06:23;;;;;;;9.15;6.57;;;9.50;97.70;;;;;;4996538;28;20035;-93
2024/03/22 02:08:49;;;;;;;9.60;6.20;;;9.50;97.70;;;;;;4996866;28;20111;-93
2024/03/22 02:11:15;;;;;;;13.38;6.10;;;9.40;98.00;;;;;;4994786;28;20461;-92
2024/03/22 02:13:40;;;;;;;11.38;6.25;;;9.50;97.80;;;;;;4996322;28;20400;-93
2024/03/22 02:16:06;;;;;;;9.43;6.25;;;9.40;98.80;;;;;;4996898;28;20024;-92
2024/03/22 02:18:32;;;;;;;10.90;6.40;;;9.40;99.00;;;;;;4996882;28;20044;-91
2024/03/22 02:20:58;;;;;;;8.63;6.30;;;9.40;98.90;;;;;;4994795;28;20021;-91
2024/03/22 02:23:29;;;;;;;13.68;8.45;;;9.40;99.00;;;;;;4995565;28;20030;-92
2024/03/22 02:25:55;;;;;;;11.45;6.85;;;9.50;99.30;;;;;;4996503;28;20018;-93
2024/03/22 02:28:20;;;;;;;11.82;6.82;;;9.60;99.50;;;;;;4996182;28;20081;-92
2024/03/22 02:30:46;;;;;;;10.57;7.35;;;9.60;99.80;;;;;;4995340;28;20385;-92
2024/03/22 02:33:12;;;;;;;11.05;7.82;;;9.70;99.70;;;;;;4996879;28;20030;-93
2024/03/22 02:35:38;;;;;;;12.10;7.70;;;9.70;99.90;;;;;;4995273;28;20034;-92
2024/03/22 02:38:03;;;;;;;11.18;7.60;;;9.80;99.90;;;;;;4996090;28;20038;-93
2024/03/22 02:40:29;;;;;;;11.35;7.90;;;9.80;98.90;;;;;;4992853;28;20033;-93
2024/03/22 02:42:55;;;;;;;9.65;6.38;;;9.80;98.20;;;;;;4995979;28;20041;-93
2024/03/22 02:45:21;;;;;;;9.25;6.18;;;9.80;98.80;;;;;;4996282;28;20026;-92
2024/03/22 02:47:46;;;;;;;9.93;7.13;;;9.80;97.70;;;;;;4996144;28;20022;-93
2024/03/22 02:50:12;;;;;;;10.10;7.57;;;9.80;98.20;;;;;;4995370;28;20045;-92
2024/03/22 02:52:38;;;;;;;9.02;6.70;;;9.80;98.40;;;;;;4995143;28;20030;-92
2024/03/22 02:55:04;;;;;;;11.45;7.78;;;9.80;98.10;;;;;;4996419;28;20030;-92
2024/03/22 02:57:29;;;;;;;12.00;7.25;;;9.80;97.90;;;;;;4995900;28;20040;-92
2024/03/22 02:59:55;;;;;;;8.90;6.93;;;9.80;97.60;;;;;;4996090;28;20117;-93
2024/03/22 03:02:21;;;;;;;9.52;7.22;;;9.80;97.70;;;;;;4995474;28;20022;-91
2024/03/22 03:04:46;;;;;;;10.98;7.57;;;9.80;97.70;;;;;;4995965;28;20085;-92
2024/03/22 03:07:12;;;;;;;11.15;6.93;;;9.80;97.90;;;;;;4994291;28;20038;-93
2024/03/22 03:09:38;;;;;;;9.00;7.10;;;9.80;98.20;;;;;;4994079;28;20030;-93
2024/03/22 03:12:03;;;;;;;9.32;5.55;;;9.80;98.40;;;;;;4994971;28;20046;-92
2024/03/22 03:14:29;;;;;;;9.25;7.90;;;9.80;98.90;;;;;;4995000;28;20061;-93
2024/03/22 03:16:55;;;;;;;10.00;7.05;;;9.80;98.60;;;;;;4995337;28;20022;-92
2024/03/22 03:19:21;;;;;;;10.15;7.30;;;9.80;98.00;;;;;;4993810;28;20098;-93
2024/03/22 03:21:46;;;;;;;10.65;7.47;;;9.70;98.60;;;;;;4994451;28;20049;-93
2024/03/22 03:24:12;;;;;;;11.73;7.32;;;9.80;98.80;;;;;;4995868;28;20037;-92
2024/03/22 03:26:40;;;;;;;9.13;6.90;;;9.70;98.70;;;;;;4995682;28;20577;-92
2024/03/22 03:29:06;;;;;;;9.70;7.45;;;9.80;98.70;;;;;;4995165;28;20022;-92
2024/03/22 03:31:32;;;;;;;9.90;7.13;;;9.80;99.00;;;;;;4994842;28;20023;-93
2024/03/22 03:33:57;;;;;;;9.50;7.13;;;9.80;99.10;;;;;;4995523;28;20032;-92
2024/03/22 03:36:23;;;;;;;13.07;6.70;;;9.90;98.90;;;;;;4995522;28;20038;-92
2024/03/22 03:38:48;;;;;;;13.32;7.45;;;9.80;98.60;;;;;;4995356;28;20241;-92
2024/03/22 03:41:14;;;;;;;11.43;8.13;;;9.80;98.90;;;;;;4994873;28;20038;-93
2024/03/22 03:43:40;;;;;;;10.23;8.48;;;9.80;98.80;;;;;;4995034;28;20058;-92
2024/03/22 03:46:06;;;;;;;11.60;9.05;;;9.90;99.50;;;;;;4995673;28;20544;-93
2024/03/22 03:48:31;;;;;;;10.68;7.60;;;9.80;99.90;;;;;;4997694;28;20022;-93
2024/03/22 03:51:02;;;;;;;11.02;7.38;;;9.80;99.90;;;;;;4998178;28;20023;-91
2024/03/22 03:53:28;;;;;;;10.38;6.68;;;9.90;99.70;;;;;;4999748;28;20026;-94
2024/03/22 03:55:54;;;;;;;11.10;7.72;;;10.00;99.40;;;;;;4999412;28;20096;-92
2024/03/22 03:58:20;;;;;;;10.93;7.55;;;10.00;98.90;;;;;;4999169;28;20034;-92
2024/03/22 04:00:45;;;;;;;11.48;6.60;;;9.90;99.50;;;;;;4997838;28;20026;-93
2024/03/22 04:03:11;;;;;;;10.27;6.88;;;9.90;99.60;;;;;;4999185;28;20022;-92
2024/03/22 04:05:37;;;;;;;10.65;6.82;;;9.90;99.50;;;;;;4998373;28;20455;-93
2024/03/22 04:08:03;;;;;;;11.13;7.95;;;10.00;99.50;;;;;;4998607;28;20029;-93
2024/03/22 04:10:28;;;;;;;10.00;7.38;;;10.00;99.50;;;;;;4999535;28;20066;-92
2024/03/22 04:12:54;;;;;;;8.82;6.88;;;9.90;99.90;;;;;;4997249;28;20038;-92
2024/03/22 04:15:20;;;;;;;10.27;7.70;;;9.90;99.90;;;;;;5000067;28;20058;-92
2024/03/22 04:17:45;;;;;;;10.30;6.25;;;9.90;99.80;;;;;;4997969;28;20033;-93
2024/03/22 04:20:11;;;;;;;11.30;7.55;;;9.80;99.90;;;;;;4997979;28;20349;-93
2024/03/22 04:22:37;;;;;;;16.08;7.45;;;9.80;99.90;;;;;;4996139;28;20035;-92
2024/03/22 04:25:03;;;;;;;14.07;8.90;;;9.80;99.90;;;;;;4998722;28;20035;-93
2024/03/22 04:27:29;;;;;;;11.68;7.60;;;9.80;99.90;;;;;;4998306;28;20030;-92
2024/03/22 04:29:55;;;;;;;16.92;8.73;;;9.80;99.90;;;;;;4998210;28;20026;-92
2024/03/22 04:32:20;;;;;;;12.65;6.95;;;9.80;99.90;;;;;;4997172;28;20066;-92
2024/03/22 04:34:46;;;;;;;11.93;7.47;;;9.90;99.80;;;;;;4999506;28;20030;-92
2024/03/22 04:37:36;;;;;;;10.13;6.95;;;10.00;99.60;;;;;;5001102;28;20103;-93
2024/03/22 04:40:02;;;;;;;10.93;6.93;;;10.00;99.20;;;;;;4981006;28;20035;-94
2024/03/22 04:42:28;;;;;;;10.95;7.50;;;10.00;98.90;;;;;;4984725;28;20501;-94
2024/03/22 04:44:53;;;;;;;8.10;6.10;;;10.00;98.80;;;;;;4997913;28;20150;-93
2024/03/22 04:47:20;;;;;;;9.93;6.25;;;10.00;98.70;;;;;;4996311;28;20029;-92
2024/03/22 04:49:46;;;;;;;13.93;6.78;;;10.00;99.00;;;;;;4995432;28;20477;-89
2024/03/22 04:52:11;;;;;;;10.10;6.13;;;10.00;99.10;;;;;;4995864;28;20026;-90
2024/03/22 04:54:37;;;;;;;10.95;6.50;;;10.00;99.20;;;;;;4996330;28;20491;-91
2024/03/22 04:57:03;;;;;;;11.05;8.23;;;9.90;99.50;;;;;;4999116;28;20128;-92
2024/03/22 04:59:28;;;;;;;11.95;6.97;;;9.80;99.50;;;;;;4995219;28;20517;-93
2024/03/22 05:01:54;;;;;;;10.15;6.68;;;9.80;99.90;;;;;;4997146;28;20397;-91
2024/03/22 05:04:20;;;;;;;12.80;7.38;;;9.80;99.90;;;;;;4995081;28;20058;-90
2024/03/22 05:06:45;;;;;;;10.50;7.30;;;9.80;99.90;;;;;;4993325;28;20029;-89
2024/03/22 05:09:11;;;;;;;11.30;7.85;;;9.70;99.90;;;;;;4994295;28;20027;-92
2024/03/22 05:11:37;;;;;;;11.15;6.15;;;9.80;99.60;;;;;;4999658;28;20034;-91
2024/03/22 05:14:03;;;;;;;10.57;7.03;;;9.80;99.60;;;;;;4998609;28;20429;-90
2024/03/22 05:16:28;;;;;;;11.82;7.90;;;9.90;99.50;;;;;;4996587;28;20030;-89
2024/03/22 05:18:54;;;;;;;10.43;7.03;;;9.80;99.20;;;;;;4986982;28;20397;-90
2024/03/22 05:21:20;;;;;;;11.25;6.70;;;9.80;99.10;;;;;;4992195;28;20027;-91
2024/03/22 05:23:46;;;;;;;12.60;8.07;;;9.80;99.20;;;;;;4996945;28;20022;-90
2024/03/22 05:26:12;;;;;;;12.70;8.57;;;9.80;99.90;;;;;;4990930;28;20031;-89
2024/03/22 05:28:37;;;;;;;13.55;7.45;;;9.80;99.90;;;;;;4995397;28;20033;-90
2024/03/22 05:31:03;;;;;;;13.95;7.35;;;9.80;99.90;;;;;;4991505;28;20484;-89
2024/03/22 05:33:34;;;;;;;11.43;7.38;;;9.80;99.90;;;;;;4996697;28;20492;-92
2024/03/22 05:36:00;;;;;;;12.60;7.57;;;9.80;99.90;;;;;;4995377;28;20065;-90
2024/03/22 05:38:26;;;;;;;15.02;8.77;;;9.80;99.90;;;;;;4996510;28;20551;-91
2024/03/22 05:40:54;;;;;;;17.45;11.88;;;9.90;99.90;;;;;;4995744;28;20038;-91
2024/03/22 05:43:20;;;;;;;16.20;10.63;;;9.80;99.40;;;;;;4997069;28;20030;-91
2024/03/22 05:45:48;;;;;;;18.85;10.52;;;9.80;99.30;;;;;;4995190;28;20033;-90
2024/03/22 05:48:14;;;;;;;22.15;9.93;;;9.80;99.30;;;;;;4995754;28;20382;-91
2024/03/22 05:50:43;;;;;;;14.38;8.98;;;9.80;99.30;;;;;;4996808;28;20153;-91
2024/03/22 05:53:09;;;;;;;11.82;7.90;;;9.80;98.60;;;;;;4990334;28;20057;-92
2024/03/22 05:55:38;;;;;;;12.60;8.20;;;9.90;98.50;;;;;;4995470;28;20026;-91
2024/03/22 05:58:10;;;;;;;14.20;7.38;;;9.90;98.50;;;;;;4997772;28;20034;-90
2024/03/22 06:00:36;;;;;;;13.43;7.00;;;10.00;97.70;;;;;;4995584;28;20320;-92
2024/03/22 06:03:01;;;;;;;13.75;7.68;;;10.00;97.40;;;;;;4996344;28;20026;-92
2024/03/22 06:05:27;;;;;;;11.93;5.75;;;10.00;97.80;;;;;;4995960;28;20027;-91
2024/03/22 06:08:02;;;;;;;8.55;6.28;;;10.00;97.70;;;;;;4996731;28;20030;-90
2024/03/22 06:10:32;;;;;;;12.40;7.68;;;10.00;98.20;;;;;;4996033;28;20081;-91
2024/03/22 06:12:58;;;;;;;9.80;7.20;;;10.00;98.30;;;;;;4994479;28;20538;-92
2024/03/22 06:15:23;;;;;;;10.60;7.57;;;10.00;98.50;;;;;;4993793;28;20030;-92
2024/03/22 06:17:50;;;;;;;11.27;7.88;;;10.10;98.50;;;;;;4992281;28;20041;-92
2024/03/22 06:20:16;;;;;;;11.23;7.18;;;10.00;98.30;;;;;;4993654;28;20045;-91
2024/03/22 06:22:41;;;;;;;11.52;7.63;;;10.10;98.60;;;;;;4992699;28;20031;-92
2024/03/22 06:25:07;;;;;;;10.25;7.57;;;10.10;98.40;;;;;;4994333;28;20022;-92
2024/03/22 06:27:33;;;;;;;12.93;8.70;;;10.20;98.50;;;;;;4997203;28;20023;-91
2024/03/22 06:29:59;;;;;;;10.95;6.63;;;10.20;98.60;;;;;;4994105;28;20460;-92
2024/03/22 06:32:24;;;;;;;12.70;7.38;;;10.20;98.60;;;;;;4996315;28;20022;-94
2024/03/22 06:34:56;;;;;;;13.13;7.88;;;10.20;99.10;;;;;;4988632;28;20030;-92
2024/03/22 06:37:22;;;;;;;10.55;6.78;;;10.20;99.30;;;;;;4943571;28;20096;-91
2024/03/22 06:40:05;;;;;;;12.65;8.07;;;10.20;99.60;;;;;;4943387;28;20030;-91
2024/03/22 06:42:35;;;;;;;16.02;7.55;;;10.20;99.90;;;;;;4954684;28;20057;-91
2024/03/22 06:45:02;;;;;;;19.25;8.32;;;10.20;99.90;;;;;;4921445;28;20666;-93
2024/03/22 06:47:40;;;;;;;16.20;9.63;;;10.20;99.90;;;;;;4923537;28;20026;-93
2024/03/22 06:50:08;;;;;;;20.27;9.50;;;10.20;99.90;;;;;;4946298;28;21610;-91
2024/03/22 06:52:43;;;;;;;15.02;9.30;;;10.30;99.90;;;;;;4944526;28;20053;-91
2024/03/22 06:55:19;;;;;;;;;;;;;;;;;;;;;
2024/03/22 06:57:53;;;;;;;13.30;7.50;;;10.40;99.90;;;;;;4963209;28;20511;-90
2024/03/22 07:00:37;;;;;;;13.18;8.15;;;10.40;99.90;;;;;;4948197;28;20086;-91
2024/03/22 07:03:06;;;;;;;10.60;7.60;;;10.50;99.60;;;;;;4944599;28;20226;-93
2024/03/22 07:05:49;;;;;;;12.50;8.38;;;10.50;99.90;;;;;;4895112;28;20208;-92
2024/03/22 07:08:25;;;;;;;11.80;8.60;;;10.70;99.80;;;;;;4893983;28;20027;-92
2024/03/22 07:11:14;;;;;;;15.05;9.27;;;10.70;98.60;;;;;;4921572;28;20057;-92
2024/03/22 07:13:59;;;;;;;12.57;7.65;;;10.80;98.10;;;;;;4916482;28;20035;-92
2024/03/22 07:16:25;;;;;;;10.25;8.10;;;10.90;97.30;;;;;;4929269;28;20316;-92
2024/03/22 07:18:56;;;;;;;16.48;7.88;;;11.00;96.90;;;;;;4943643;28;20034;-91
2024/03/22 07:21:22;;;;;;;12.20;7.38;;;11.00;96.10;;;;;;4940047;28;20129;-92
2024/03/22 07:24:04;;;;;;;14.65;7.88;;;11.20;95.30;;;;;;4862432;28;20918;-91
2024/03/22 07:26:39;;;;;;;16.08;8.20;;;11.30;95.80;;;;;;4875300;28;20023;-92
2024/03/22 07:29:12;;;;;;;17.90;7.80;;;11.30;94.70;;;;;;4884505;28;20944;-92
2024/03/22 07:31:41;;;;;;;13.75;8.20;;;11.40;95.00;;;;;;4919965;28;20639;-90
2024/03/22 07:34:15;;;;;;;14.40;7.25;;;11.50;93.70;;;;;;4887992;28;21897;-91
2024/03/22 07:37:01;;;;;;;;;;;11.60;93.00;;;;;;4931205;28;21672;-91
2024/03/22 07:39:36;;;;;;;15.45;7.95;;;11.70;92.60;;;;;;4974380;28;20458;-93
2024/03/22 07:42:04;;;;;;;13.70;8.07;;;11.70;92.10;;;;;;4971608;28;20054;-92
2024/03/22 07:44:33;;;;;;;15.32;8.88;;;11.80;92.50;;;;;;4973535;28;20399;-92
2024/03/22 07:47:09;;;;;;;12.93;8.25;;;11.90;91.60;;;;;;4972439;28;20030;-92
2024/03/22 07:49:38;;;;;;;15.93;8.40;;;12.10;91.20;;;;;;4967334;28;20023;-92
2024/03/22 07:52:04;;;;;;;12.35;7.63;;;12.30;91.10;;;;;;4972811;28;20034;-91
2024/03/22 07:54:36;;;;;;;12.55;8.13;;;12.30;88.60;;;;;;4974798;28;20049;-91
2024/03/22 07:57:03;;;;;;;13.40;9.10;;;12.40;88.40;;;;;;4976721;28;20105;-91
2024/03/22 07:59:39;;;;;;;9.52;6.82;;;12.60;88.30;;;;;;4975265;28;20054;-92
2024/03/22 08:02:08;;;;;;;12.27;7.97;;;12.70;86.10;;;;;;4976539;28;20086;-92
2024/03/22 08:04:42;;;;;;;11.85;7.35;;;12.90;84.80;;;;;;4980067;28;20031;-91
2024/03/22 08:07:18;;;;;;;;;;;;;;;;;;;;;
2024/03/22 08:09:50;;;;;;;12.85;7.35;;;13.20;83.40;;;;;;4976719;28;20083;-92
2024/03/22 08:12:51;;;;;;;13.30;8.25;;;13.50;82.60;;;;;;4975065;28;20050;-92
2024/03/22 08:18:13;;;;;;;14.02;8.35;;;13.90;80.80;;;;;;4976639;28;20046;-92
2024/03/22 08:20:42;;;;;;;13.02;8.18;;;14.00;78.40;;;;;;4980073;28;20034;-92
2024/03/22 08:23:20;;;;;;;13.32;8.23;;;14.10;76.50;;;;;;4977335;28;20019;-92
2024/03/22 08:25:57;;;;;;;14.80;8.65;;;14.20;76.70;;;;;;4992419;28;20027;-91
2024/03/22 08:28:25;;;;;;;16.13;8.80;;;14.20;77.30;;;;;;4976780;28;20023;-93
2024/03/22 08:30:51;;;;;;;14.68;9.00;;;14.40;78.10;;;;;;4974720;28;20127;-91
2024/03/22 08:33:20;;;;;;;13.57;8.45;;;14.60;76.50;;;;;;4976822;28;20027;-91
2024/03/22 08:35:57;;;;;;;17.75;9.20;;;14.80;75.50;;;;;;4980828;28;20031;-93
2024/03/22 08:39:06;;;;;;;;;;;;;;;;;;;;;
2024/03/22 08:41:38;;;;;;;16.20;9.35;;;15.20;72.10;;;;;;4983457;28;20094;-92
2024/03/22 08:46:42;;;;;;;14.35;7.82;;;15.30;71.00;;;;;;5017426;28;20405;-93
2024/03/22 08:49:07;;;;;;;15.70;8.43;;;15.20;72.00;;;;;;5002106;28;20045;-94
2024/03/22 08:51:59;;;;;;;14.15;8.98;;;15.30;71.80;;;;;;5018495;28;20025;-92
2024/03/22 08:54:25;;;;;;;12.90;8.93;;;15.40;71.40;;;;;;5019063;28;20026;-92
2024/03/22 08:57:19;;;;;;;14.93;9.27;;;15.40;70.80;;;;;;5001613;28;20034;-92
2024/03/22 08:59:46;;;;;;;13.23;7.75;;;15.30;70.00;;;;;;5019894;28;20049;-93
2024/03/22 09:02:15;;;;;;;16.75;8.35;;;15.20;71.20;;;;;;5000704;28;20050;-92
2024/03/22 09:05:04;;;;;;;11.35;7.65;;;15.30;69.70;;;;;;5001100;28;20030;-92
2024/03/22 09:08:27;;;;;;;12.65;7.30;;;15.30;69.70;;;;;;5013575;28;20503;-92
2024/03/22 09:11:00;;;;;;;12.05;7.05;;;15.40;69.80;;;;;;5017704;28;20030;-92
2024/03/22 09:13:26;;;;;;;15.48;7.65;;;15.60;69.40;;;;;;5017192;28;20061;-91
2024/03/22 09:16:26;;;;;;;11.13;6.85;;;15.70;68.40;;;;;;5018856;28;20444;-93
2024/03/22 09:19:25;;;;;;;11.35;7.35;;;15.80;67.60;;;;;;5001835;28;20030;-92
2024/03/22 09:22:04;;;;;;;10.98;6.65;;;15.60;66.10;;;;;;5017913;28;20113;-92
2024/03/22 09:24:32;;;;;;;10.25;7.43;;;15.80;68.50;;;;;;5019776;28;20026;-92
2024/03/22 09:26:58;;;;;;;12.13;7.45;;;15.60;65.50;;;;;;5018663;28;20026;-93
2024/03/22 09:29:35;;;;;;;9.55;6.90;;;15.60;67.10;;;;;;5018073;28;20496;-93
2024/03/22 09:32:01;;;;;;;23.17;7.60;;;15.70;67.70;;;;;;5001126;28;20169;-92
2024/03/22 09:34:48;;;;;;;13.38;6.97;;;15.70;68.50;;;;;;5018452;28;20030;-92
2024/03/22 09:37:17;;;;;;;10.70;7.00;;;15.80;66.90;;;;;;5002400;28;20037;-93
2024/03/22 09:39:44;;;;;;;16.95;7.03;;;15.90;68.00;;;;;;5016777;28;20045;-93
2024/03/22 09:42:49;;;;;;;9.52;7.18;;;15.90;68.30;;;;;;5015276;28;20109;-92
2024/03/22 09:45:18;;;;;;;11.82;7.00;;;15.70;68.00;;;;;;5001598;23;20165;-94
2024/03/22 09:47:45;;;;;;;11.88;8.48;;;15.80;66.40;;;;;;5000660;28;20077;-96
2024/03/22 09:50:12;;;;;;;9.75;7.30;;;15.80;67.10;;;;;;5000780;28;20041;-94
2024/03/22 09:52:38;;;;;;;10.23;7.15;;;16.00;67.00;;;;;;5000250;28;20026;-94
2024/03/22 09:55:06;;;;;;;13.55;7.97;;;15.80;65.50;;;;;;5010250;28;20072;-94
2024/03/22 09:57:34;;;;;;;12.95;7.25;;;15.80;65.90;;;;;;4970903;28;20026;-94
2024/03/22 09:59:59;;;;;;;12.88;7.50;;;15.80;66.70;;;;;;5007703;28;20048;-93
2024/03/22 10:02:26;;;;;;;11.05;6.93;;;15.90;66.40;;;;;;4999766;28;20090;-94
2024/03/22 10:04:52;;;;;;;10.82;7.40;;;16.00;66.40;;;;;;5016658;28;20044;-94
2024/03/22 10:07:18;;;;;;;14.60;8.05;;;16.10;66.90;;;;;;4998859;28;20416;-94
2024/03/22 10:09:44;;;;;;;13.80;7.40;;;16.40;66.50;;;;;;5008215;28;20029;-94
2024/03/22 10:12:10;;;;;;;12.68;7.88;;;16.50;65.80;;;;;;4993779;28;20309;-94
2024/03/22 10:14:36;;;;;;;13.82;7.47;;;16.50;66.10;;;;;;5021750;28;20238;-94
2024/03/22 10:17:03;;;;;;;13.18;8.88;;;16.50;65.20;;;;;;5015149;28;20156;-93
2024/03/22 10:19:28;;;;;;;11.05;7.78;;;16.60;63.40;;;;;;5001839;28;20034;-94
2024/03/22 10:22:01;;;;;;;13.13;7.75;;;16.40;63.00;;;;;;5006417;28;20158;-95
2024/03/22 10:24:26;;;;;;;14.40;8.10;;;16.70;64.40;;;;;;5008001;28;20049;-94
2024/03/22 10:26:52;;;;;;;10.57;8.10;;;16.70;64.10;;;;;;4988914;28;20034;-94
2024/03/22 10:29:20;;;;;;;13.00;7.53;;;16.80;60.80;;;;;;5004785;28;20106;-94
2024/03/22 10:31:47;;;;;;;10.20;7.70;;;16.50;62.30;;;;;;4998873;28;20496;-94
2024/03/22 10:34:13;;;;;;;15.35;8.80;;;16.70;63.10;;;;;;4997746;28;20519;-94
2024/03/22 10:36:40;;;;;;;13.13;8.55;;;16.70;60.80;;;;;;4998435;28;20027;-94
2024/03/22 10:39:08;;;;;;;12.85;8.25;;;16.80;62.70;;;;;;5001630;28;20084;-95
2024/03/22 10:41:33;;;;;;;11.95;7.82;;;17.00;60.80;;;;;;5008164;28;20633;-94
2024/03/22 10:43:59;;;;;;;13.48;8.27;;;16.60;61.60;;;;;;5010118;28;20108;-93
2024/03/22 10:46:30;;;;;;;12.68;8.30;;;16.50;62.10;;;;;;4987122;28;20026;-94
2024/03/22 10:48:57;;;;;;;11.95;7.35;;;16.40;62.40;;;;;;5004672;28;20082;-96
2024/03/22 10:51:26;;;;;;;10.75;8.18;;;16.60;60.80;;;;;;4994939;28;20053;-95
2024/03/22 10:53:55;;;;;;;13.25;7.35;;;16.90;60.90;;;;;;4999887;28;20117;-95
2024/03/22 10:56:22;;;;;;;11.95;7.32;;;17.10;61.50;;;;;;4998828;28;20033;-94
2024/03/22 10:58:49;;;;;;;13.98;6.35;;;17.10;60.60;;;;;;5001367;28;20050;-94
2024/03/22 11:01:25;;;;;;;;;;;16.90;60.40;;;;;;5003404;28;20049;-94
2024/03/22 11:03:51;;;;;;;12.30;7.60;;;17.20;61.00;;;;;;5008883;28;19909;-94
2024/03/22 11:06:20;;;;;;;12.32;6.20;;;17.40;59.50;;;;;;4998797;28;20033;-93
2024/03/22 11:08:50;;;;;;;12.35;8.30;;;17.60;60.20;;;;;;4998221;28;20405;-95
2024/03/22 11:11:19;;;;;;;9.68;6.30;;;17.60;57.00;;;;;;4998733;28;20461;-94
2024/03/22 11:13:48;;;;;;;10.10;7.28;;;17.30;58.00;;;;;;4997742;28;20417;-94
2024/03/22 11:16:15;;;;;;;9.90;7.38;;;17.30;57.60;;;;;;4998466;28;20040;-93
2024/03/22 11:18:40;;;;;;;8.43;7.00;;;17.40;58.90;;;;;;4987962;28;20018;-95
2024/03/22 11:21:08;;;;;;;10.30;7.00;;;17.60;58.40;;;;;;4980474;28;20029;-95
2024/03/22 11:23:37;;;;;;;13.20;6.78;;;17.60;56.50;;;;;;5005962;28;20046;-94
2024/03/22 11:26:03;;;;;;;10.82;6.40;;;17.40;56.20;;;;;;4998154;28;20027;-95
2024/03/22 11:28:30;;;;;;;9.00;7.47;;;17.50;54.90;;;;;;5004442;28;20018;-94
2024/03/22 11:30:56;;;;;;;11.38;6.32;;;17.50;55.40;;;;;;5000923;28;20042;-93
2024/03/22 11:33:22;;;;;;;8.25;6.10;;;17.40;56.00;;;;;;5005902;28;20045;-94
2024/03/22 11:35:49;;;;;;;9.82;6.35;;;17.70;55.20;;;;;;4994266;28;20030;-95
2024/03/22 11:38:15;;;;;;;10.45;6.00;;;17.80;56.70;;;;;;4994607;28;20025;-94
2024/03/22 11:40:42;;;;;;;12.68;6.45;;;17.80;54.00;;;;;;4997076;28;20026;-95
2024/03/22 11:43:08;;;;;;;10.20;6.25;;;17.80;54.90;;;;;;4997867;28;20019;-94
2024/03/22 11:45:34;;;;;;;10.00;6.15;;;17.80;53.00;;;;;;4998867;28;20506;-95
2024/03/22 11:48:03;;;;;;;10.95;7.53;;;17.60;53.20;;;;;;5010996;28;20093;-94
2024/03/22 11:50:32;;;;;;;9.55;6.43;;;17.80;53.40;;;;;;4986703;28;20605;-94
2024/03/22 11:52:58;;;;;;;7.95;6.00;;;17.80;52.70;;;;;;5007804;28;20037;-94
2024/03/22 11:55:27;;;;;;;10.82;6.47;;;17.80;53.20;;;;;;5003424;28;20030;-92
2024/03/22 11:57:53;;;;;;;11.77;6.78;;;17.70;52.40;;;;;;4999962;28;20037;-95
2024/03/22 12:00:19;;;;;;;12.60;6.45;;;17.60;52.00;;;;;;4998850;28;20042;-95
2024/03/22 12:02:45;;;;;;;10.02;6.30;;;17.70;52.90;;;;;;4998173;28;20023;-95
2024/03/22 12:05:11;;;;;;;10.13;6.07;;;18.10;50.40;;;;;;4998607;28;20019;-94
2024/03/22 12:07:39;;;;;;;9.45;5.30;;;18.60;49.70;;;;;;4998266;28;20503;-94
2024/03/22 12:10:05;;;;;;;12.05;5.28;;;18.90;48.20;;;;;;5001031;28;20080;-95
2024/03/22 12:12:30;;;;;;;6.38;5.40;;;19.10;48.60;;;;;;5000970;28;20037;-94
2024/03/22 12:14:56;;;;;;;7.93;4.35;;;19.70;49.20;;;;;;4984371;28;20473;-96
2024/03/22 12:17:31;;;;;;;5.60;4.57;;;19.30;44.30;;;;;;5006343;28;20039;-96
2024/03/22 12:19:56;;;;;;;6.05;3.78;;;19.00;44.90;;;;;;5012296;28;20050;-95
2024/03/22 12:22:25;;;;;;;9.85;3.88;;;19.50;43.60;;;;;;5006126;28;20505;-94
2024/03/22 12:24:52;;;;;;;6.60;4.80;;;19.80;42.90;;;;;;4982016;28;20034;-95
2024/03/22 12:27:18;;;;;;;7.82;4.80;;;19.60;41.00;;;;;;4999509;28;20508;-94
2024/03/22 12:29:43;;;;;;;5.93;3.83;;;19.10;43.50;;;;;;4998573;28;20023;-94
2024/03/22 12:32:10;;;;;;;7.18;3.63;;;18.90;44.10;;;;;;4986574;28;20094;-94
2024/03/22 12:34:35;;;;;;;7.45;4.03;;;19.00;42.00;;;;;;5000339;28;20145;-92
2024/03/22 12:37:02;;;;;;;6.90;4.63;;;18.90;43.00;;;;;;5000156;28;20038;-94
2024/03/22 12:39:28;;;;;;;7.18;4.43;;;18.80;43.70;;;;;;5000042;28;20033;-95
2024/03/22 12:41:54;;;;;;;7.35;5.18;;;18.90;44.40;;;;;;5000564;28;20389;-93
2024/03/22 12:44:20;;;;;;;7.03;4.45;;;19.10;43.50;;;;;;5005184;28;20128;-93
2024/03/22 12:46:46;;;;;;;6.93;4.07;;;19.20;44.40;;;;;;5007915;28;20026;-94
2024/03/22 12:49:12;;;;;;;5.18;3.72;;;18.90;44.10;;;;;;5008548;28;20021;-93
2024/03/22 12:51:38;;;;;;;4.78;2.88;;;19.10;42.60;;;;;;4999948;28;20049;-93
2024/03/22 12:54:04;;;;;;;7.35;3.55;;;19.20;41.10;;;;;;5008436;28;20022;-94
2024/03/22 12:56:31;;;;;;;5.95;3.08;;;19.40;41.70;;;;;;5001156;28;20026;-93
2024/03/22 12:58:56;;;;;;;5.25;3.15;;;19.70;40.60;;;;;;4991901;28;20018;-93
2024/03/22 13:01:22;;;;;;;7.65;3.47;;;19.80;41.00;;;;;;5001930;28;20049;-93